createdAt,value
2023-04-14T00:02:13.271Z,5.47
2023-04-14T00:04:40.811Z,5.13
2023-04-14T00:07:07.954Z,5.77
2023-04-14T00:09:34.944Z,4.47
2023-04-14T00:12:01.903Z,5.43
2023-04-14T00:14:28.808Z,4.70
2023-04-14T00:16:55.789Z,4.80
2023-04-14T00:19:22.762Z,4.90
2023-04-14T00:21:49.703Z,5.10
2023-04-14T00:24:16.582Z,4.20
2023-04-14T00:26:43.618Z,4.40
2023-04-14T00:29:10.674Z,4.20
2023-04-14T00:31:37.874Z,4.30
2023-04-14T00:34:04.918Z,4.73
2023-04-14T00:36:32.093Z,4.50
2023-04-14T00:39:00.347Z,4.57
2023-04-14T00:41:35.871Z,4.30
2023-04-14T00:44:02.891Z,4.63
2023-04-14T00:46:30.432Z,4.80
2023-04-14T00:48:58.002Z,4.97
2023-04-14T00:51:26.947Z,4.80
2023-04-14T00:53:56.422Z,4.63
2023-04-14T00:56:29.331Z,4.63
2023-04-14T00:58:56.556Z,4.30
2023-04-14T01:01:24.741Z,4.37
2023-04-14T01:03:53.134Z,4.40
2023-04-14T01:06:20.266Z,4.00
2023-04-14T01:08:50.409Z,4.10
2023-04-14T01:11:46.017Z,4.30
2023-04-14T01:14:54.699Z,3.80
2023-04-14T01:17:49.800Z,4.00
2023-04-14T01:20:56.388Z,3.67
2023-04-14T01:23:31.868Z,3.80
2023-04-14T01:26:28.529Z,4.30
2023-04-14T01:29:31.774Z,3.30
2023-04-14T01:32:21.829Z,4.00
2023-04-14T01:35:05.656Z,4.10
2023-04-14T01:37:44.314Z,3.57
2023-04-14T01:40:19.261Z,3.70
2023-04-14T01:43:05.923Z,3.53
2023-04-14T01:45:43.388Z,4.23
2023-04-14T01:48:12.383Z,4.03
2023-04-14T01:50:44.229Z,4.90
2023-04-14T01:53:17.926Z,4.90
2023-04-14T01:55:49.389Z,5.07
2023-04-14T01:58:21.705Z,4.57
2023-04-14T02:00:52.648Z,5.47
2023-04-14T02:03:23.023Z,4.57
2023-04-14T02:05:56.402Z,4.70
2023-04-14T02:08:25.603Z,4.90
2023-04-14T02:10:55.533Z,5.43
2023-04-14T02:13:25.740Z,5.33
2023-04-14T02:15:53.265Z,6.37
2023-04-14T02:18:23.323Z,4.97
2023-04-14T02:20:54.404Z,5.53
2023-04-14T02:23:21.479Z,5.30
2023-04-14T02:26:16.097Z,5.60
2023-04-14T02:29:14.206Z,6.70
2023-04-14T02:31:52.770Z,5.67
2023-04-14T02:34:30.655Z,5.53
2023-04-14T02:37:09.375Z,5.57
2023-04-14T02:39:50.433Z,6.23
2023-04-14T02:42:24.013Z,6.37
2023-04-14T02:45:02.835Z,6.67
2023-04-14T02:47:39.849Z,6.30
2023-04-14T02:50:16.317Z,5.97
2023-04-14T02:52:51.199Z,6.17
2023-04-14T02:55:22.984Z,5.80
2023-04-14T02:57:53.127Z,6.13
2023-04-14T03:00:22.301Z,4.77
2023-04-14T03:02:53.800Z,5.73
2023-04-14T03:05:22.208Z,4.40
2023-04-14T03:07:54.516Z,4.80
2023-04-14T03:10:23.368Z,5.80
2023-04-14T03:12:52.816Z,5.20
2023-04-14T03:15:22.543Z,5.20
2023-04-14T03:17:55.762Z,5.37
2023-04-14T03:20:23.812Z,5.30
2023-04-14T03:23:01.207Z,5.07
2023-04-14T03:25:36.565Z,5.57
2023-04-14T03:28:13.463Z,5.13
2023-04-14T03:30:51.128Z,5.10
2023-04-14T03:33:27.364Z,6.53
2023-04-14T03:35:58.630Z,4.70
2023-04-14T03:38:32.138Z,6.87
2023-04-14T03:41:05.411Z,5.57
2023-04-14T03:43:35.066Z,5.30
2023-04-14T03:46:05.201Z,6.20
2023-04-14T03:48:42.169Z,5.73
2023-04-14T03:51:13.837Z,6.00
2023-04-14T03:53:46.275Z,6.10
2023-04-14T03:56:17.576Z,7.67
2023-04-14T03:58:47.662Z,6.80
2023-04-14T04:01:17.718Z,7.47
2023-04-14T04:03:46.850Z,6.30
2023-04-14T04:06:15.066Z,6.50
2023-04-14T04:08:45.916Z,6.83
2023-04-14T04:11:18.642Z,6.50
2023-04-14T04:13:50.095Z,6.83
2023-04-14T04:16:22.158Z,6.83
2023-04-14T04:18:50.755Z,7.30
2023-04-14T04:21:21.335Z,6.93
2023-04-14T04:23:57.169Z,6.90
2023-04-14T04:26:25.997Z,7.57
2023-04-14T04:28:57.907Z,7.27
2023-04-14T04:31:28.527Z,6.83
2023-04-14T04:33:58.133Z,8.00
2023-04-14T04:36:31.658Z,7.83
2023-04-14T04:38:58.941Z,9.33
2023-04-14T04:41:30.090Z,7.93
2023-04-14T04:43:59.200Z,8.93
2023-04-14T04:46:53.268Z,9.60
2023-04-14T04:49:21.595Z,8.50
2023-04-14T04:51:49.844Z,9.07
2023-04-14T04:54:19.762Z,8.90
2023-04-14T04:56:46.674Z,9.70
2023-04-14T04:59:14.665Z,8.30
2023-04-14T05:01:41.936Z,10.07
2023-04-14T05:04:09.941Z,10.02
2023-04-14T05:06:40.128Z,8.40
2023-04-14T05:09:07.189Z,9.17
2023-04-14T05:11:35.368Z,12.47
2023-04-14T05:14:05.431Z,10.57
2023-04-14T05:16:33.429Z,10.40
2023-04-14T05:19:01.110Z,11.00
2023-04-14T05:21:28.288Z,12.47
2023-04-14T05:23:55.523Z,10.70
2023-04-14T05:26:44.681Z,12.83
2023-04-14T05:29:09.438Z,11.20
2023-04-14T05:31:36.491Z,11.80
2023-04-14T05:34:03.651Z,12.83
2023-04-14T05:36:31.034Z,12.07
2023-04-14T05:38:58.038Z,12.07
2023-04-14T05:41:25.182Z,14.27
2023-04-14T05:43:52.132Z,14.20
2023-04-14T05:46:19.069Z,12.17
2023-04-14T05:48:46.027Z,12.40
2023-04-14T05:51:13.101Z,13.20
2023-04-14T05:53:40.101Z,12.87
2023-04-14T05:56:09.845Z,13.20
2023-04-14T05:58:37.058Z,13.67
2023-04-14T06:01:04.190Z,14.10
2023-04-14T06:03:31.767Z,13.77
2023-04-14T06:05:58.909Z,13.77
2023-04-14T06:08:26.046Z,11.90
2023-04-14T06:10:53.044Z,13.23
2023-04-14T06:13:22.698Z,13.10
2023-04-14T06:15:51.016Z,12.90
2023-04-14T06:18:18.108Z,13.40
2023-04-14T06:20:45.718Z,14.30
2023-04-14T06:23:12.684Z,12.57
2023-04-14T06:25:40.552Z,12.57
2023-04-14T06:28:07.689Z,12.17
2023-04-14T06:30:34.709Z,11.87
2023-04-14T06:33:04.892Z,12.80
2023-04-14T06:35:33.880Z,12.90
2023-04-14T06:38:04.097Z,13.40
2023-04-14T06:40:31.136Z,13.20
2023-04-14T06:42:58.103Z,13.27
2023-04-14T06:45:25.159Z,13.13
2023-04-14T06:47:52.270Z,14.30
2023-04-14T06:50:19.490Z,13.10
2023-04-14T06:52:46.552Z,12.90
2023-04-14T06:55:13.555Z,12.50
2023-04-14T06:57:40.527Z,13.93
2023-04-14T07:00:10.514Z,12.90
2023-04-14T07:02:37.551Z,14.77
2023-04-14T07:05:05.919Z,12.07
2023-04-14T07:07:39.897Z,13.03
2023-04-14T07:10:07.794Z,14.00
2023-04-14T07:12:34.827Z,14.30
2023-04-14T07:15:01.806Z,14.13
2023-04-14T07:17:28.907Z,15.90
2023-04-14T07:19:58.050Z,12.37
2023-04-14T07:22:25.178Z,17.23
2023-04-14T07:24:53.625Z,17.10
2023-04-14T07:27:20.670Z,12.50
2023-04-14T07:29:47.673Z,11.07
2023-04-14T07:32:14.561Z,11.67
2023-04-14T07:34:43.577Z,12.03
2023-04-14T07:37:11.270Z,11.33
2023-04-14T07:39:38.581Z,10.30
2023-04-14T07:42:06.634Z,10.00
2023-04-14T07:44:33.638Z,10.53
2023-04-14T07:47:00.752Z,11.17
2023-04-14T07:49:27.704Z,9.63
2023-04-14T07:51:54.698Z,9.00
2023-04-14T07:54:22.062Z,9.30
2023-04-14T07:56:49.291Z,7.47
2023-04-14T07:59:16.321Z,7.40
2023-04-14T08:03:37.746Z,6.97
2023-04-14T08:06:07.313Z,6.93
2023-04-14T08:08:35.777Z,5.90
2023-04-14T08:11:02.792Z,7.33
2023-04-14T08:13:29.733Z,6.77
2023-04-14T08:15:56.782Z,6.33
2023-04-14T08:18:23.694Z,7.33
2023-04-14T08:20:50.777Z,6.40
2023-04-14T08:23:17.700Z,7.00
2023-04-14T08:25:44.699Z,6.73
2023-04-14T08:28:12.613Z,7.37
2023-04-14T08:30:39.804Z,6.80
2023-04-14T08:33:06.832Z,6.30
2023-04-14T08:35:42.070Z,6.70
2023-04-14T08:38:10.700Z,6.30
2023-04-14T08:40:42.293Z,5.97
2023-04-14T08:43:13.725Z,5.50
2023-04-14T08:45:43.985Z,5.80
2023-04-14T08:48:16.528Z,6.63
2023-04-14T08:51:04.512Z,5.70
2023-04-14T08:53:33.590Z,7.00
2023-04-14T08:56:05.921Z,6.07
2023-04-14T08:58:33.028Z,5.90
2023-04-14T09:01:01.037Z,4.53
2023-04-14T09:03:28.265Z,5.63
2023-04-14T09:05:55.779Z,5.20
2023-04-14T09:08:23.779Z,5.53
2023-04-14T09:10:51.129Z,5.10
2023-04-14T09:13:22.899Z,5.10
2023-04-14T09:15:50.133Z,4.90
2023-04-14T09:18:17.388Z,3.73
2023-04-14T09:21:29.346Z,4.77
2023-04-14T09:23:41.494Z,4.30
2023-04-14T09:26:10.305Z,4.90
2023-04-14T09:28:37.830Z,4.83
2023-04-14T09:31:05.943Z,4.63
2023-04-14T09:33:33.999Z,4.33
2023-04-14T09:36:01.174Z,4.43
2023-04-14T09:38:39.281Z,4.47
2023-04-14T09:41:06.989Z,4.90
2023-04-14T09:43:34.292Z,5.00
2023-04-14T09:46:09.392Z,5.17
2023-04-14T09:48:59.311Z,4.33
2023-04-14T09:51:32.793Z,4.80
2023-04-14T09:54:04.806Z,5.50
2023-04-14T09:56:32.536Z,3.90
2023-04-14T09:59:02.434Z,5.60
2023-04-14T10:01:34.071Z,4.80
2023-04-14T10:04:04.124Z,4.13
2023-04-14T10:06:32.300Z,4.30
2023-04-14T10:09:00.344Z,3.63
2023-04-14T10:11:32.805Z,4.20
2023-04-14T10:14:05.952Z,4.27
2023-04-14T10:16:34.424Z,4.43
2023-04-14T10:19:02.748Z,4.83
2023-04-14T10:21:30.521Z,4.10
2023-04-14T10:23:58.093Z,3.70
2023-04-14T10:26:27.475Z,3.97
2023-04-14T10:28:56.545Z,3.93
2023-04-14T10:31:57.149Z,3.23
2023-04-14T10:34:26.862Z,3.70
2023-04-14T10:36:54.391Z,3.27
2023-04-14T10:39:24.664Z,3.30
2023-04-14T10:41:53.419Z,3.90
2023-04-14T10:44:33.690Z,3.70
2023-04-14T10:47:08.396Z,2.77
2023-04-14T10:49:38.901Z,3.57
2023-04-14T10:52:27.431Z,3.70
2023-04-14T10:55:01.210Z,4.33
2023-04-14T10:57:30.173Z,3.60
2023-04-14T11:00:00.422Z,4.57
2023-04-14T11:02:33.773Z,4.20
2023-04-14T11:05:14.056Z,3.63
2023-04-14T11:07:52.055Z,3.27
2023-04-14T11:10:22.018Z,3.83
2023-04-14T11:12:56.450Z,3.00
2023-04-14T11:15:24.156Z,2.80
2023-04-14T11:17:51.920Z,3.53
2023-04-14T11:20:22.456Z,3.13
2023-04-14T11:22:53.989Z,2.77
2023-04-14T11:25:24.393Z,2.97
2023-04-14T11:27:52.775Z,3.90
2023-04-14T11:30:21.725Z,3.00
2023-04-14T11:32:54.013Z,3.10
2023-04-14T11:35:26.807Z,3.37
2023-04-14T11:38:00.890Z,2.80
2023-04-14T11:40:28.383Z,2.60
2023-04-14T11:42:59.167Z,2.30
2023-04-14T11:45:30.775Z,2.37
2023-04-14T11:48:00.823Z,2.73
2023-04-14T11:50:34.644Z,2.40
2023-04-14T11:53:02.950Z,2.80
2023-04-14T11:55:30.683Z,3.90
2023-04-14T11:57:57.955Z,2.90
2023-04-14T12:00:26.429Z,3.00
2023-04-14T12:02:54.024Z,2.70
2023-04-14T12:05:29.998Z,3.57
2023-04-14T12:08:07.367Z,3.37
2023-04-14T12:10:38.576Z,4.07
2023-04-14T12:13:12.368Z,3.37
2023-04-14T12:15:42.448Z,3.10
2023-04-14T12:18:16.413Z,2.90
2023-04-14T12:20:54.745Z,2.33
2023-04-14T12:23:23.320Z,3.23
2023-04-14T12:25:51.836Z,2.90
2023-04-14T12:28:25.103Z,3.00
2023-04-14T12:30:56.493Z,9.73
2023-04-14T12:33:30.664Z,2.30
2023-04-14T12:36:05.399Z,4.47
2023-04-14T12:38:34.438Z,3.70
2023-04-14T12:41:01.996Z,3.57
2023-04-14T12:43:35.617Z,2.53
2023-04-14T12:46:05.269Z,2.60
2023-04-14T12:48:48.464Z,2.20
2023-04-14T12:51:19.457Z,2.50
2023-04-14T12:53:50.053Z,2.60
2023-04-14T12:56:24.112Z,2.73
2023-04-14T12:58:51.485Z,2.30
2023-04-14T13:01:23.390Z,2.30
2023-04-14T13:03:55.778Z,2.80
2023-04-14T13:06:25.126Z,3.00
2023-04-14T13:08:54.986Z,2.37
2023-04-14T13:11:24.288Z,2.07
2023-04-14T13:13:53.457Z,2.47
2023-04-14T13:16:21.334Z,2.80
2023-04-14T13:18:49.147Z,2.63
2023-04-14T13:21:16.842Z,2.70
2023-04-14T13:23:44.254Z,4.10
2023-04-14T13:26:12.370Z,2.90
2023-04-14T13:28:39.383Z,3.33
2023-04-14T13:31:06.857Z,8.33
2023-04-14T13:33:33.998Z,3.03
2023-04-14T13:36:03.057Z,2.33
2023-04-14T13:38:30.825Z,2.60
2023-04-14T13:40:57.806Z,2.20
2023-04-14T13:43:24.909Z,1.90
2023-04-14T13:45:55.616Z,2.07
2023-04-14T13:48:22.527Z,2.20
2023-04-14T13:50:52.064Z,2.70
2023-04-14T13:53:19.483Z,2.27
2023-04-14T13:55:46.529Z,1.80
2023-04-14T13:58:13.547Z,1.83
2023-04-14T14:00:41.352Z,1.87
2023-04-14T14:03:08.464Z,2.00
2023-04-14T14:05:35.587Z,2.10
2023-04-14T14:08:03.130Z,2.00
2023-04-14T14:10:30.539Z,2.27
2023-04-14T14:12:57.496Z,2.00
2023-04-14T14:15:24.519Z,2.37
2023-04-14T14:17:53.104Z,1.90
2023-04-14T14:20:20.530Z,2.03
2023-04-14T14:22:47.613Z,2.40
2023-04-14T14:25:20.187Z,2.43
2023-04-14T14:27:48.303Z,2.43
2023-04-14T14:30:15.802Z,2.10
2023-04-14T14:32:42.906Z,2.77
2023-04-14T14:35:10.325Z,1.47
2023-04-14T14:37:37.308Z,2.37
2023-04-14T14:40:05.588Z,2.40
2023-04-14T14:42:34.483Z,2.07
2023-04-14T14:45:02.123Z,2.00
2023-04-14T14:47:29.343Z,2.00
2023-04-14T14:50:02.022Z,2.10
2023-04-14T14:52:31.894Z,2.27
2023-04-14T14:54:58.921Z,2.30
2023-04-14T14:57:26.839Z,2.10
2023-04-14T14:59:54.161Z,2.53
2023-04-14T15:02:22.251Z,1.80
2023-04-14T15:04:49.581Z,1.87
2023-04-14T15:07:17.318Z,1.83
2023-04-14T15:09:47.257Z,2.20
2023-04-14T15:12:14.487Z,2.03
2023-04-14T15:14:41.431Z,2.53
2023-04-14T15:17:08.459Z,2.20
2023-04-14T15:19:35.368Z,2.50
2023-04-14T15:22:02.308Z,3.27
2023-04-14T15:24:29.273Z,2.93
2023-04-14T15:26:56.417Z,3.13
2023-04-14T15:29:25.736Z,2.50
2023-04-14T15:31:52.817Z,2.60
2023-04-14T15:34:21.133Z,3.53
2023-04-14T15:36:48.094Z,2.73
2023-04-14T15:39:15.212Z,3.87
2023-04-14T15:41:42.289Z,3.47
2023-04-14T15:44:09.247Z,3.80
2023-04-14T15:46:36.175Z,3.80
2023-04-14T15:49:03.139Z,3.57
2023-04-14T15:51:30.075Z,4.80
2023-04-14T15:53:56.989Z,3.40
2023-04-14T15:56:24.312Z,3.93
2023-04-14T15:58:51.248Z,3.93
2023-04-14T16:01:18.239Z,3.80
2023-04-14T16:03:45.277Z,4.13
2023-04-14T16:06:12.340Z,5.20
2023-04-14T16:08:39.408Z,4.70
2023-04-14T16:11:06.482Z,8.37
2023-04-14T16:13:33.440Z,5.37
2023-04-14T16:16:01.130Z,5.80
2023-04-14T16:18:28.113Z,4.40
2023-04-14T16:20:55.182Z,4.80
2023-04-14T16:23:22.199Z,4.43
2023-04-14T16:25:49.925Z,4.80
2023-04-14T16:28:16.962Z,4.53
2023-04-14T16:30:45.651Z,3.87
2023-04-14T16:33:13.402Z,4.30
2023-04-14T16:35:40.842Z,3.70
2023-04-14T16:38:08.698Z,4.23
2023-04-14T16:40:37.268Z,4.40
2023-04-14T16:43:04.713Z,4.10
2023-04-14T16:45:32.570Z,4.80
2023-04-14T16:48:00.050Z,5.60
2023-04-14T16:50:27.589Z,7.83
2023-04-14T16:52:54.627Z,6.97
2023-04-14T16:55:21.607Z,5.03
2023-04-14T16:57:48.604Z,4.77
2023-04-14T17:00:16.707Z,5.10
2023-04-14T17:02:43.893Z,7.20
2023-04-14T17:05:13.008Z,3.97
2023-04-14T17:07:40.964Z,5.37
2023-04-14T17:10:09.045Z,5.27
2023-04-14T17:12:36.088Z,4.97
2023-04-14T17:15:04.385Z,4.40
2023-04-14T17:17:31.929Z,5.60
2023-04-14T17:19:59.306Z,5.70
2023-04-14T17:22:27.625Z,5.20
2023-04-14T17:24:55.601Z,4.77
2023-04-14T17:27:22.841Z,4.80
2023-04-14T17:29:49.776Z,4.73
2023-04-14T17:32:18.653Z,4.60
2023-04-14T17:34:49.165Z,5.13
2023-04-14T17:37:16.397Z,5.70
2023-04-14T17:39:49.641Z,4.70
2023-04-14T17:42:16.961Z,4.57
2023-04-14T17:44:43.978Z,4.80
2023-04-14T17:47:15.387Z,4.70
2023-04-14T17:49:43.835Z,4.30
2023-04-14T17:52:11.578Z,4.80
2023-04-14T17:54:38.880Z,4.00
2023-04-14T17:57:06.673Z,3.97
2023-04-14T17:59:33.626Z,3.50
2023-04-14T18:02:00.543Z,3.00
2023-04-14T18:04:27.507Z,4.57
2023-04-14T18:06:57.685Z,3.70
2023-04-14T18:09:24.721Z,4.43
2023-04-14T18:11:52.230Z,3.57
2023-04-14T18:14:19.600Z,4.50
2023-04-14T18:16:46.775Z,4.10
2023-04-14T18:19:13.950Z,4.30
2023-04-14T18:21:43.233Z,5.47
2023-04-14T18:26:42.651Z,4.80
2023-04-14T18:29:09.524Z,3.63
2023-04-14T18:31:37.009Z,4.10
2023-04-14T18:34:05.733Z,5.17
2023-04-14T18:36:33.405Z,4.37
2023-04-14T18:39:01.010Z,5.67
2023-04-14T18:41:28.548Z,5.33
2023-04-14T18:43:55.552Z,5.00
2023-04-14T18:46:22.872Z,6.20
2023-04-14T18:48:49.795Z,6.00
2023-04-14T18:51:16.909Z,4.23
2023-04-14T18:53:45.432Z,4.10
2023-04-14T18:56:13.742Z,4.27
2023-04-14T18:58:40.965Z,3.80
2023-04-14T19:01:08.548Z,5.40
2023-04-14T19:03:36.379Z,5.20
2023-04-14T19:06:03.568Z,4.83
2023-04-14T19:08:30.597Z,5.30
2023-04-14T19:10:59.122Z,5.57
2023-04-14T19:13:26.413Z,5.23
2023-04-14T19:16:02.633Z,7.00
2023-04-14T19:18:29.624Z,8.63
2023-04-14T19:20:57.011Z,7.80
2023-04-14T19:23:24.066Z,5.10
2023-04-14T19:25:50.984Z,5.00
2023-04-14T19:28:18.108Z,5.83
2023-04-14T19:30:45.783Z,6.07
2023-04-14T19:33:12.967Z,6.30
2023-04-14T19:35:39.969Z,7.67
2023-04-14T19:38:08.457Z,6.00
2023-04-14T19:40:35.485Z,5.03
2023-04-14T19:43:02.416Z,3.90
2023-04-14T19:45:29.545Z,4.17
2023-04-14T19:47:56.672Z,3.80
2023-04-14T19:50:23.976Z,4.07
2023-04-14T19:52:51.976Z,3.60
2023-04-14T19:55:19.699Z,4.53
2023-04-14T19:57:47.103Z,3.63
2023-04-14T20:00:15.779Z,4.37
2023-04-14T20:02:43.363Z,4.23
2023-04-14T20:05:10.306Z,4.37
2023-04-14T20:07:37.196Z,4.33
2023-04-14T20:10:04.377Z,6.50
2023-04-14T20:12:31.507Z,4.27
2023-04-14T20:14:58.381Z,4.80
2023-04-14T20:17:27.112Z,4.33
2023-04-14T20:19:54.654Z,5.03
2023-04-14T20:22:21.562Z,6.33
2023-04-14T20:24:48.550Z,5.50
2023-04-14T20:27:15.645Z,5.60
2023-04-14T20:29:42.537Z,6.77
2023-04-14T20:32:09.554Z,6.87
2023-04-14T20:34:36.555Z,6.40
2023-04-14T20:37:03.479Z,5.97
2023-04-14T20:39:30.497Z,6.20
2023-04-14T20:41:57.462Z,6.13
2023-04-14T20:44:24.412Z,8.73
2023-04-14T20:46:51.970Z,10.53
2023-04-14T20:49:18.891Z,7.83
2023-04-14T20:51:46.804Z,5.87
2023-04-14T20:54:13.825Z,5.50
2023-04-14T20:56:40.989Z,6.30
2023-04-14T20:59:08.136Z,7.03
2023-04-14T21:01:35.088Z,10.00
2023-04-14T21:04:02.164Z,9.37
2023-04-14T21:06:31.142Z,7.63
2023-04-14T21:08:59.941Z,9.57
2023-04-14T21:11:28.563Z,8.87
2023-04-14T21:15:30.321Z,8.97
2023-04-14T21:16:42.832Z,8.00
2023-04-14T21:19:09.942Z,7.47
2023-04-14T21:21:37.713Z,6.43
2023-04-14T21:24:05.311Z,7.90
2023-04-14T21:26:32.352Z,8.67
2023-04-14T21:28:59.421Z,8.37
2023-04-14T21:31:27.270Z,8.00
2023-04-14T21:33:54.248Z,7.20
2023-04-14T21:36:21.727Z,7.90
2023-04-14T21:38:48.674Z,6.60
2023-04-14T21:41:15.862Z,7.23
2023-04-14T21:43:42.925Z,5.20
2023-04-14T21:46:10.201Z,10.87
2023-04-14T21:48:37.361Z,5.77
2023-04-14T21:51:04.839Z,5.87
2023-04-14T21:53:32.461Z,7.70
2023-04-14T21:56:10.397Z,7.60
2023-04-14T21:58:41.886Z,6.20
2023-04-14T22:01:12.345Z,7.40
2023-04-14T22:03:40.898Z,7.17
2023-04-14T22:06:09.791Z,7.50
2023-04-14T22:08:39.024Z,8.70
2023-04-14T22:11:06.959Z,7.57
2023-04-14T22:13:33.943Z,7.87
2023-04-14T22:16:00.888Z,7.27
2023-04-14T22:18:28.606Z,6.80
2023-04-14T22:20:55.720Z,6.37
2023-04-14T22:23:23.374Z,7.20
2023-04-14T22:25:50.788Z,6.37
2023-04-14T22:28:17.770Z,6.20
2023-04-14T22:30:44.887Z,6.37
2023-04-14T22:33:11.978Z,6.80
2023-04-14T22:35:39.441Z,6.10
2023-04-14T22:38:06.952Z,6.57
2023-04-14T22:40:33.828Z,7.07
2023-04-14T22:43:00.845Z,6.87
2023-04-14T22:45:28.288Z,6.90
2023-04-14T22:47:55.228Z,6.50
2023-04-14T22:50:22.462Z,6.83
2023-04-14T22:52:49.365Z,7.07
2023-04-14T22:55:16.810Z,6.73
2023-04-14T22:57:43.751Z,5.50
2023-04-14T23:00:11.894Z,6.00
2023-04-14T23:02:40.961Z,5.87
2023-04-14T23:05:10.461Z,5.90
2023-04-14T23:07:41.671Z,5.40
2023-04-14T23:10:10.953Z,6.20
2023-04-14T23:12:41.501Z,6.00
2023-04-14T23:15:09.579Z,6.93
2023-04-14T23:17:36.636Z,6.83
2023-04-14T23:20:04.262Z,6.90
2023-04-14T23:22:31.166Z,7.90
2023-04-14T23:24:58.075Z,7.60
2023-04-14T23:27:25.078Z,8.60
2023-04-14T23:29:51.983Z,8.40
2023-04-14T23:32:18.941Z,8.50
2023-04-14T23:34:45.864Z,8.00
2023-04-14T23:37:13.000Z,8.43
2023-04-14T23:39:40.564Z,8.60
2023-04-14T23:42:07.548Z,8.90
2023-04-14T23:44:34.472Z,9.63
2023-04-14T23:47:01.497Z,9.43
2023-04-14T23:49:34.655Z,9.47
2023-04-14T23:52:03.325Z,10.07
2023-04-14T23:54:31.556Z,10.50
2023-04-14T23:56:58.640Z,10.10
2023-04-14T23:59:26.188Z,11.13
